createdAt,value
2018-12-31T00:00:21.722Z,20.63
2018-12-31T00:02:53.634Z,21.87
2018-12-31T00:05:23.988Z,21.47
2018-12-31T00:07:54.344Z,21.20
2018-12-31T00:10:24.763Z,21.77
2018-12-31T00:12:55.158Z,22.53
2018-12-31T00:15:25.634Z,22.10
2018-12-31T00:17:56.069Z,21.73
2018-12-31T00:20:26.647Z,21.73
2018-12-31T00:22:57.103Z,23.33
2018-12-31T00:25:27.614Z,23.93
2018-12-31T00:27:57.990Z,22.13
2018-12-31T00:30:28.353Z,22.30
2018-12-31T00:32:58.769Z,25.00
2018-12-31T00:35:29.099Z,24.03
2018-12-31T00:37:59.434Z,25.67
2018-12-31T00:40:30.206Z,25.47
2018-12-31T00:43:00.557Z,26.20
2018-12-31T00:45:30.900Z,25.23
2018-12-31T00:48:01.242Z,26.20
2018-12-31T00:50:31.565Z,26.77
2018-12-31T00:53:01.931Z,26.53
2018-12-31T00:55:32.249Z,27.60
2018-12-31T00:58:02.611Z,26.20
2018-12-31T01:00:32.956Z,25.33
2018-12-31T01:03:03.303Z,26.90
2018-12-31T01:05:33.764Z,25.87
2018-12-31T01:08:04.122Z,25.33
2018-12-31T01:10:34.428Z,26.67
2018-12-31T01:13:04.892Z,26.57
2018-12-31T01:15:35.212Z,27.57
2018-12-31T01:18:05.567Z,27.93
2018-12-31T01:20:35.914Z,27.27
2018-12-31T01:23:06.456Z,27.17
2018-12-31T01:25:36.842Z,28.00
2018-12-31T01:28:07.210Z,28.03
2018-12-31T01:30:37.526Z,28.53
2018-12-31T01:33:07.865Z,28.83
2018-12-31T01:35:38.193Z,28.70
2018-12-31T01:38:08.566Z,26.50
2018-12-31T01:40:38.895Z,27.70
2018-12-31T01:43:09.259Z,27.23
2018-12-31T01:45:39.587Z,30.97
2018-12-31T01:48:09.952Z,28.90
2018-12-31T01:50:40.266Z,31.50
2018-12-31T01:53:10.609Z,31.03
2018-12-31T01:55:40.965Z,30.90
2018-12-31T01:58:11.294Z,31.40
2018-12-31T02:00:41.604Z,30.07
2018-12-31T02:03:11.953Z,29.53
2018-12-31T02:05:42.427Z,32.50
2018-12-31T02:08:12.696Z,32.03
2018-12-31T02:10:43.066Z,29.57
2018-12-31T02:13:13.413Z,28.17
2018-12-31T02:15:43.751Z,31.27
2018-12-31T02:18:14.123Z,29.97
2018-12-31T02:20:44.587Z,30.00
2018-12-31T02:23:14.909Z,33.33
2018-12-31T02:25:45.237Z,28.97
2018-12-31T02:28:15.571Z,33.53
2018-12-31T02:30:46.028Z,30.67
2018-12-31T02:33:16.367Z,31.80
2018-12-31T02:35:46.738Z,33.73
2018-12-31T02:38:17.104Z,31.03
2018-12-31T02:40:47.513Z,32.30
2018-12-31T02:43:17.877Z,31.67
2018-12-31T02:45:48.259Z,30.73
2018-12-31T02:48:18.630Z,31.07
2018-12-31T02:50:48.984Z,30.07
2018-12-31T02:53:19.325Z,31.90
2018-12-31T02:55:49.643Z,32.57
2018-12-31T02:58:19.992Z,29.07
2018-12-31T03:00:50.315Z,30.83
2018-12-31T03:03:20.659Z,30.57
2018-12-31T03:05:51.043Z,30.10
2018-12-31T03:08:21.428Z,32.07
2018-12-31T03:10:51.768Z,30.77
2018-12-31T03:13:22.148Z,28.73
2018-12-31T03:15:52.506Z,31.30
2018-12-31T03:18:22.809Z,31.53
2018-12-31T03:20:53.209Z,32.40
2018-12-31T03:23:23.526Z,32.43
2018-12-31T03:25:53.890Z,31.03
2018-12-31T03:28:24.214Z,32.23
2018-12-31T03:30:54.589Z,28.97
2018-12-31T03:33:24.924Z,31.97
2018-12-31T03:35:55.274Z,32.80
2018-12-31T03:38:25.577Z,31.40
2018-12-31T03:40:55.943Z,32.13
2018-12-31T03:43:26.263Z,32.80
2018-12-31T03:45:56.657Z,30.33
2018-12-31T03:48:26.974Z,27.83
2018-12-31T03:50:57.385Z,31.13
2018-12-31T03:53:27.708Z,32.27
2018-12-31T03:55:58.044Z,32.27
2018-12-31T03:58:28.368Z,32.73
2018-12-31T04:00:58.732Z,30.07
2018-12-31T04:03:29.053Z,32.47
2018-12-31T04:05:59.391Z,32.83
2018-12-31T04:08:29.690Z,32.73
2018-12-31T04:11:00.146Z,31.27
2018-12-31T04:13:30.553Z,32.33
2018-12-31T04:16:00.973Z,34.03
2018-12-31T04:18:31.299Z,32.63
2018-12-31T04:21:01.646Z,33.27
2018-12-31T04:23:31.989Z,34.53
2018-12-31T04:26:02.433Z,35.23
2018-12-31T04:28:32.772Z,33.70
2018-12-31T04:31:03.139Z,34.33
2018-12-31T04:33:33.474Z,32.53
2018-12-31T04:36:03.828Z,33.13
2018-12-31T04:38:34.132Z,33.23
2018-12-31T04:41:04.543Z,31.83
2018-12-31T04:43:34.873Z,31.40
2018-12-31T04:46:05.202Z,33.27
2018-12-31T04:48:35.546Z,29.60
2018-12-31T04:51:05.926Z,32.90
2018-12-31T04:53:36.247Z,32.47
2018-12-31T04:56:06.658Z,31.20
2018-12-31T04:58:36.989Z,33.90
2018-12-31T05:01:07.333Z,34.20
2018-12-31T05:03:38.027Z,33.73
2018-12-31T05:06:08.335Z,35.47
2018-12-31T05:08:38.655Z,36.00
2018-12-31T05:11:09.156Z,35.60
2018-12-31T05:13:39.499Z,35.07
2018-12-31T05:16:09.862Z,34.50
2018-12-31T05:18:40.190Z,35.17
2018-12-31T05:21:10.552Z,35.13
2018-12-31T05:23:40.872Z,33.13
2018-12-31T05:26:11.208Z,33.57
2018-12-31T05:28:41.541Z,33.43
2018-12-31T05:31:11.915Z,31.93
2018-12-31T05:33:42.226Z,33.53
2018-12-31T05:36:12.587Z,31.20
2018-12-31T05:38:43.978Z,31.80
2018-12-31T05:41:14.333Z,32.07
2018-12-31T05:43:44.656Z,31.27
2018-12-31T05:46:15.002Z,31.60
2018-12-31T05:48:45.329Z,31.23
2018-12-31T05:51:15.663Z,31.60
2018-12-31T05:53:45.981Z,31.43
2018-12-31T05:56:16.322Z,31.23
2018-12-31T05:58:46.727Z,31.87
2018-12-31T06:01:17.087Z,30.67
2018-12-31T06:03:47.413Z,31.97
2018-12-31T06:06:17.901Z,35.73
2018-12-31T06:08:48.215Z,50.67
2018-12-31T06:11:18.615Z,32.80
2018-12-31T06:13:48.954Z,34.90
2018-12-31T06:16:19.274Z,30.53
2018-12-31T06:18:49.599Z,34.93
2018-12-31T06:21:19.940Z,35.07
2018-12-31T06:23:50.259Z,32.27
2018-12-31T06:26:20.615Z,35.53
2018-12-31T06:28:50.942Z,34.23
2018-12-31T06:31:21.289Z,34.17
2018-12-31T06:33:51.605Z,33.83
2018-12-31T06:36:21.978Z,34.70
2018-12-31T06:38:52.304Z,33.07
2018-12-31T06:41:22.640Z,36.23
2018-12-31T06:43:53.002Z,32.30
2018-12-31T06:46:24.401Z,34.20
2018-12-31T06:48:54.738Z,31.77
2018-12-31T06:51:25.110Z,33.13
2018-12-31T06:53:55.437Z,35.03
2018-12-31T06:56:25.780Z,32.43
2018-12-31T06:58:56.098Z,29.23
2018-12-31T07:01:26.454Z,32.37
2018-12-31T07:03:56.767Z,30.97
2018-12-31T07:06:27.115Z,31.27
2018-12-31T07:11:28.733Z,29.87
2018-12-31T07:13:59.117Z,29.77
2018-12-31T07:16:29.478Z,29.70
2018-12-31T07:18:59.877Z,29.70
2018-12-31T07:21:30.297Z,30.27
2018-12-31T07:24:00.637Z,29.27
2018-12-31T07:26:30.950Z,28.43
2018-12-31T07:29:01.310Z,29.87
2018-12-31T07:31:31.654Z,28.07
2018-12-31T07:34:02.011Z,30.13
2018-12-31T07:36:32.358Z,32.63
2018-12-31T07:39:02.674Z,28.87
2018-12-31T07:41:33.030Z,32.27
2018-12-31T07:44:03.356Z,36.17
2018-12-31T07:46:33.715Z,32.13
2018-12-31T07:49:04.051Z,32.03
2018-12-31T07:51:34.391Z,30.30
2018-12-31T07:54:04.726Z,30.90
2018-12-31T07:56:35.104Z,30.83
2018-12-31T07:59:05.490Z,33.47
2018-12-31T08:01:35.914Z,31.83
2018-12-31T08:04:06.256Z,29.83
2018-12-31T08:06:36.593Z,34.17
2018-12-31T08:09:07.820Z,30.57
2018-12-31T08:11:38.309Z,31.20
2018-12-31T08:14:08.679Z,30.73
2018-12-31T08:16:39.004Z,30.43
2018-12-31T08:19:09.380Z,30.20
2018-12-31T08:21:39.798Z,29.80
2018-12-31T08:24:10.148Z,31.00
2018-12-31T08:26:40.452Z,31.17
2018-12-31T08:29:10.811Z,31.07
2018-12-31T08:31:41.146Z,30.00
2018-12-31T08:34:11.515Z,29.47
2018-12-31T08:36:41.929Z,31.53
2018-12-31T08:39:12.370Z,33.83
2018-12-31T08:41:42.714Z,29.80
2018-12-31T08:44:14.128Z,32.53
2018-12-31T08:46:44.451Z,30.60
2018-12-31T08:49:14.794Z,34.60
2018-12-31T08:51:45.112Z,32.10
2018-12-31T08:54:15.481Z,35.53
2018-12-31T08:56:45.791Z,30.30
2018-12-31T08:59:16.143Z,27.63
2018-12-31T09:01:46.475Z,27.87
2018-12-31T09:04:17.928Z,34.23
2018-12-31T09:06:48.307Z,31.80
2018-12-31T09:09:18.757Z,32.53
2018-12-31T09:11:49.193Z,35.20
2018-12-31T09:14:19.538Z,26.60
2018-12-31T09:16:49.928Z,36.43
2018-12-31T09:19:20.216Z,44.23
2018-12-31T09:21:50.531Z,27.80
2018-12-31T09:24:20.958Z,28.27
2018-12-31T09:26:51.267Z,28.23
2018-12-31T09:29:21.614Z,28.10
2018-12-31T09:31:51.929Z,31.53
2018-12-31T09:34:22.301Z,24.03
2018-12-31T09:36:52.614Z,25.63
2018-12-31T09:39:22.961Z,26.23
2018-12-31T09:41:53.514Z,25.43
2018-12-31T09:44:24.818Z,24.60
2018-12-31T09:46:55.165Z,25.50
2018-12-31T09:49:25.513Z,26.13
2018-12-31T09:51:56.030Z,27.17
2018-12-31T09:54:27.967Z,24.80
2018-12-31T09:56:58.366Z,24.83
2018-12-31T09:59:29.820Z,23.57
2018-12-31T10:02:00.126Z,25.83
2018-12-31T10:04:30.506Z,24.67
2018-12-31T10:07:00.827Z,24.10
2018-12-31T10:09:31.260Z,21.90
2018-12-31T10:12:01.690Z,21.17
2018-12-31T10:14:32.058Z,24.40
2018-12-31T10:17:02.528Z,24.80
2018-12-31T10:19:32.930Z,20.10
2018-12-31T10:22:03.301Z,23.03
2018-12-31T10:24:33.715Z,24.87
2018-12-31T10:27:04.064Z,22.77
2018-12-31T10:29:36.213Z,25.67
2018-12-31T10:32:06.478Z,27.63
2018-12-31T10:34:36.879Z,23.20
2018-12-31T10:37:07.213Z,22.50
2018-12-31T10:39:37.616Z,23.20
2018-12-31T10:42:07.979Z,21.83
2018-12-31T10:44:38.615Z,20.92
2018-12-31T10:47:08.923Z,21.47
2018-12-31T10:49:39.380Z,19.33
2018-12-31T10:52:09.777Z,19.43
2018-12-31T10:54:40.147Z,18.90
2018-12-31T10:57:10.495Z,19.73
2018-12-31T10:59:40.890Z,19.70
2018-12-31T11:02:11.242Z,20.13
2018-12-31T11:04:41.582Z,19.70
2018-12-31T11:07:11.912Z,18.70
2018-12-31T11:09:42.325Z,19.27
2018-12-31T11:12:12.754Z,21.60
2018-12-31T11:14:43.182Z,20.90
2018-12-31T11:17:13.645Z,25.23
2018-12-31T11:19:43.993Z,20.80
2018-12-31T11:22:14.343Z,22.17
2018-12-31T11:24:44.686Z,20.17
2018-12-31T11:27:15.046Z,20.60
2018-12-31T11:29:45.438Z,19.97
2018-12-31T11:32:15.744Z,20.70
2018-12-31T11:34:46.135Z,23.33
2018-12-31T11:37:16.459Z,23.43
2018-12-31T11:39:46.791Z,33.27
2018-12-31T11:42:17.104Z,23.33
2018-12-31T11:44:47.467Z,22.00
2018-12-31T11:47:17.794Z,20.83
2018-12-31T11:49:48.232Z,21.57
2018-12-31T11:52:18.793Z,20.03
2018-12-31T11:54:49.196Z,21.13
2018-12-31T11:57:19.699Z,21.60
2018-12-31T11:59:51.596Z,19.80
2018-12-31T12:02:23.650Z,20.57
2018-12-31T12:04:54.220Z,22.93
2018-12-31T12:07:24.591Z,21.57
2018-12-31T12:09:55.085Z,22.37
2018-12-31T12:12:25.527Z,22.23
2018-12-31T12:14:56.127Z,22.93
2018-12-31T12:17:26.446Z,21.90
2018-12-31T12:19:56.825Z,21.40
2018-12-31T12:22:27.154Z,22.63
2018-12-31T12:24:57.521Z,23.87
2018-12-31T12:27:27.856Z,23.77
2018-12-31T12:29:58.302Z,24.40
2018-12-31T12:32:28.651Z,20.87
2018-12-31T12:34:59.363Z,21.03
2018-12-31T12:37:29.919Z,21.87
2018-12-31T12:40:00.332Z,21.10
2018-12-31T12:42:30.817Z,24.13
2018-12-31T12:45:01.181Z,25.50
2018-12-31T12:47:31.574Z,24.00
2018-12-31T12:50:01.895Z,23.27
2018-12-31T12:52:32.365Z,23.60
2018-12-31T12:55:02.707Z,22.70
2018-12-31T12:57:34.505Z,24.77
2018-12-31T13:00:05.280Z,25.67
2018-12-31T13:02:35.865Z,23.70
2018-12-31T13:05:06.234Z,23.00
2018-12-31T13:07:37.758Z,23.63
2018-12-31T13:10:08.293Z,22.53
2018-12-31T13:12:38.989Z,21.53
2018-12-31T13:15:09.342Z,23.40
2018-12-31T13:17:39.719Z,23.30
2018-12-31T13:20:10.399Z,23.60
2018-12-31T13:22:40.899Z,22.07
2018-12-31T13:25:11.430Z,27.10
2018-12-31T13:27:41.836Z,27.83
2018-12-31T13:30:12.609Z,27.37
2018-12-31T13:32:43.209Z,25.00
2018-12-31T13:35:13.627Z,26.57
2018-12-31T13:37:44.115Z,24.57
2018-12-31T13:40:14.459Z,20.93
2018-12-31T13:42:44.991Z,21.33
2018-12-31T13:45:15.512Z,22.50
2018-12-31T13:47:46.164Z,25.90
2018-12-31T13:50:16.523Z,22.87
2018-12-31T13:52:47.262Z,23.97
2018-12-31T13:55:18.847Z,21.73
2018-12-31T13:57:49.851Z,20.80
2018-12-31T14:00:20.232Z,22.50
2018-12-31T14:02:50.728Z,24.00
2018-12-31T14:05:21.061Z,24.93
2018-12-31T14:07:51.607Z,23.10
2018-12-31T14:10:21.950Z,24.23
2018-12-31T14:12:52.700Z,31.13
2018-12-31T14:15:23.191Z,28.60
2018-12-31T14:17:53.633Z,30.03
2018-12-31T14:20:24.044Z,24.73
2018-12-31T14:22:54.498Z,24.33
2018-12-31T14:25:24.926Z,23.37
2018-12-31T14:27:55.612Z,25.00
2018-12-31T14:30:26.116Z,21.50
2018-12-31T14:32:56.503Z,19.73
2018-12-31T14:35:26.927Z,19.37
2018-12-31T14:37:57.390Z,21.80
2018-12-31T14:40:28.870Z,19.27
2018-12-31T14:42:59.457Z,20.13
2018-12-31T14:45:29.855Z,20.37
2018-12-31T14:48:00.520Z,19.27
2018-12-31T14:50:30.929Z,17.67
2018-12-31T14:53:01.311Z,19.13
2018-12-31T14:55:31.817Z,18.53
2018-12-31T14:58:02.281Z,20.03
2018-12-31T15:00:32.652Z,21.63
2018-12-31T15:03:03.202Z,20.47
2018-12-31T15:05:33.565Z,20.47
2018-12-31T15:08:03.978Z,22.10
2018-12-31T15:10:34.338Z,24.43
2018-12-31T15:13:04.771Z,23.83
2018-12-31T15:15:35.124Z,24.33
2018-12-31T15:18:05.511Z,26.00
2018-12-31T15:20:35.918Z,26.87
2018-12-31T15:23:06.302Z,27.40
2018-12-31T15:25:36.678Z,26.27
2018-12-31T15:28:07.084Z,25.57
2018-12-31T15:30:37.486Z,28.00
2018-12-31T15:33:07.848Z,29.60
2018-12-31T15:35:38.879Z,26.00
2018-12-31T15:38:09.242Z,29.83
2018-12-31T15:40:39.645Z,29.67
2018-12-31T15:43:10.016Z,25.10
2018-12-31T15:45:40.615Z,30.70
2018-12-31T15:48:11.012Z,29.67
2018-12-31T15:50:41.417Z,29.30
2018-12-31T15:53:11.742Z,28.87
2018-12-31T15:55:42.437Z,25.27
2018-12-31T15:58:12.789Z,27.90
2018-12-31T16:00:43.288Z,31.40
2018-12-31T16:03:13.641Z,31.30
2018-12-31T16:05:44.119Z,26.77
2018-12-31T16:08:14.877Z,27.97
2018-12-31T16:10:45.263Z,31.83
2018-12-31T16:13:15.656Z,28.70
2018-12-31T16:15:46.357Z,25.10
2018-12-31T16:18:16.825Z,26.97
2018-12-31T16:20:47.185Z,26.23
2018-12-31T16:23:17.567Z,27.37
2018-12-31T16:25:47.914Z,34.07
2018-12-31T16:28:18.379Z,33.40
2018-12-31T16:30:49.005Z,37.07
2018-12-31T16:33:19.532Z,45.27
2018-12-31T16:35:49.962Z,51.90
2018-12-31T16:38:20.314Z,43.27
2018-12-31T16:40:50.706Z,45.67
2018-12-31T16:43:21.107Z,42.10
2018-12-31T16:45:51.490Z,36.93
2018-12-31T16:48:22.911Z,38.67
2018-12-31T16:50:53.313Z,39.80
2018-12-31T16:53:24.093Z,36.07
2018-12-31T16:55:54.475Z,30.43
2018-12-31T16:58:26.406Z,32.93
2018-12-31T17:00:56.805Z,37.40
2018-12-31T17:03:27.171Z,43.37
2018-12-31T17:05:57.572Z,42.97
2018-12-31T17:08:27.920Z,34.90
2018-12-31T17:10:58.287Z,33.77
2018-12-31T17:13:28.628Z,35.83
2018-12-31T17:15:59.006Z,41.87
2018-12-31T17:18:29.487Z,67.10
2018-12-31T17:20:59.919Z,40.70
2018-12-31T17:23:30.319Z,39.23
2018-12-31T17:26:00.638Z,35.07
2018-12-31T17:28:31.241Z,33.37
2018-12-31T17:31:01.567Z,38.50
2018-12-31T17:33:31.970Z,38.27
2018-12-31T17:36:02.347Z,31.40
2018-12-31T17:38:33.790Z,32.37
2018-12-31T17:41:04.138Z,39.50
2018-12-31T17:43:34.560Z,40.77
2018-12-31T17:46:04.881Z,42.17
2018-12-31T17:48:35.290Z,43.77
2018-12-31T17:51:05.626Z,43.73
2018-12-31T17:53:36.005Z,38.23
2018-12-31T17:56:06.376Z,42.67
2018-12-31T17:58:36.774Z,39.17
2018-12-31T18:01:07.098Z,33.97
2018-12-31T18:03:37.754Z,33.87
2018-12-31T18:06:08.099Z,34.80
2018-12-31T18:08:38.467Z,32.97
2018-12-31T18:11:08.807Z,33.03
2018-12-31T18:13:39.165Z,33.57
2018-12-31T18:16:09.517Z,35.27
2018-12-31T18:18:39.879Z,33.27
2018-12-31T18:21:10.232Z,32.37
2018-12-31T18:23:40.623Z,30.20
2018-12-31T18:26:11.175Z,30.13
2018-12-31T18:28:41.709Z,29.30
2018-12-31T18:31:12.041Z,29.27
2018-12-31T18:33:42.501Z,28.77
2018-12-31T18:36:12.861Z,26.87
2018-12-31T18:38:43.209Z,28.40
2018-12-31T18:41:13.545Z,28.73
2018-12-31T18:43:43.879Z,31.13
2018-12-31T18:46:14.256Z,27.97
2018-12-31T18:48:44.592Z,28.37
2018-12-31T18:51:14.958Z,37.40
2018-12-31T18:53:45.307Z,40.87
2018-12-31T18:56:15.779Z,40.00
2018-12-31T18:58:46.508Z,43.70
2018-12-31T19:01:17.101Z,53.13
2018-12-31T19:03:47.457Z,41.70
2018-12-31T19:06:17.818Z,43.97
2018-12-31T19:08:50.739Z,35.87
2018-12-31T19:11:21.186Z,35.63
2018-12-31T19:13:51.546Z,34.13
2018-12-31T19:16:21.968Z,31.07
2018-12-31T19:18:52.275Z,30.77
2018-12-31T19:21:22.687Z,37.43
2018-12-31T19:23:53.207Z,31.80
2018-12-31T19:26:24.969Z,34.40
2018-12-31T19:28:55.283Z,32.50
2018-12-31T19:31:25.746Z,32.47
2018-12-31T19:33:56.087Z,37.40
2018-12-31T19:36:26.480Z,36.30
2018-12-31T19:38:56.807Z,39.83
2018-12-31T19:41:27.177Z,51.60
2018-12-31T19:43:57.512Z,49.20
2018-12-31T19:46:27.895Z,49.40
2018-12-31T19:48:58.202Z,50.60
2018-12-31T19:51:28.587Z,52.13
2018-12-31T19:53:58.951Z,54.13
2018-12-31T19:56:29.335Z,58.97
2018-12-31T19:58:59.880Z,62.13
2018-12-31T20:01:30.264Z,62.20
2018-12-31T20:04:00.596Z,61.37
2018-12-31T20:06:30.984Z,55.80
2018-12-31T20:09:01.406Z,62.47
2018-12-31T20:11:33.424Z,53.47
2018-12-31T20:14:03.760Z,50.23
2018-12-31T20:16:34.162Z,46.53
2018-12-31T20:19:04.527Z,42.57
2018-12-31T20:21:35.211Z,53.47
2018-12-31T20:24:05.565Z,53.63
2018-12-31T20:26:35.952Z,56.60
2018-12-31T20:29:06.300Z,52.83
2018-12-31T20:31:36.678Z,50.40
2018-12-31T20:34:07.315Z,57.70
2018-12-31T20:36:37.693Z,56.93
2018-12-31T20:39:08.055Z,53.43
2018-12-31T20:41:39.226Z,50.92
2018-12-31T20:44:09.560Z,50.57
2018-12-31T20:46:40.053Z,52.13
2018-12-31T20:49:10.417Z,54.03
2018-12-31T20:51:40.818Z,53.43
2018-12-31T20:54:11.829Z,54.17
2018-12-31T20:56:42.330Z,51.13
2018-12-31T20:59:13.003Z,49.47
2018-12-31T21:01:43.391Z,50.93
2018-12-31T21:04:13.749Z,50.13
2018-12-31T21:06:44.193Z,76.97
2018-12-31T21:09:14.548Z,51.77
2018-12-31T21:11:44.990Z,64.37
2018-12-31T21:14:15.352Z,55.97
2018-12-31T21:16:45.880Z,65.27
2018-12-31T21:19:16.269Z,53.63
2018-12-31T21:21:46.678Z,59.37
2018-12-31T21:24:17.138Z,53.93
2018-12-31T21:26:47.547Z,44.90
2018-12-31T21:29:17.919Z,47.07
2018-12-31T21:31:48.278Z,43.40
2018-12-31T21:34:18.918Z,40.87
2018-12-31T21:36:49.289Z,41.53
2018-12-31T21:39:19.627Z,39.50
2018-12-31T21:41:50.078Z,39.50
2018-12-31T21:44:20.436Z,76.33
2018-12-31T21:46:51.035Z,113.40
2018-12-31T21:49:21.572Z,91.50
2018-12-31T21:51:52.166Z,59.93
2018-12-31T21:54:22.473Z,56.30
2018-12-31T21:56:52.828Z,72.07
2018-12-31T21:59:23.179Z,52.40
2018-12-31T22:01:53.557Z,243.83
2018-12-31T22:04:24.043Z,58.93
2018-12-31T22:06:54.438Z,58.77
2018-12-31T22:09:24.751Z,53.20
2018-12-31T22:11:55.138Z,52.73
2018-12-31T22:14:25.483Z,59.00
2018-12-31T22:16:55.841Z,62.67
2018-12-31T22:19:26.164Z,67.73
2018-12-31T22:21:56.960Z,65.10
2018-12-31T22:24:27.286Z,70.23
2018-12-31T22:26:57.713Z,74.17
2018-12-31T22:29:28.044Z,63.20
2018-12-31T22:31:58.389Z,55.67
2018-12-31T22:34:28.788Z,60.10
2018-12-31T22:36:59.139Z,56.87
2018-12-31T22:39:29.454Z,57.60
2018-12-31T22:41:59.808Z,53.57
2018-12-31T22:44:30.148Z,50.63
2018-12-31T22:47:00.510Z,54.57
2018-12-31T22:49:30.857Z,48.27
2018-12-31T22:52:01.244Z,52.53
2018-12-31T22:54:31.716Z,56.50
2018-12-31T22:57:02.392Z,53.30
2018-12-31T22:59:32.739Z,72.90
2018-12-31T23:02:03.104Z,106.40
2018-12-31T23:04:33.457Z,687.83
2018-12-31T23:07:06.611Z,581.80
2018-12-31T23:09:41.125Z,561.83
2018-12-31T23:12:09.614Z,285.90
2018-12-31T23:14:39.999Z,183.73
2018-12-31T23:17:13.002Z,159.47
2018-12-31T23:19:43.330Z,245.43
2018-12-31T23:22:13.714Z,591.60
2018-12-31T23:24:44.059Z,678.60
2018-12-31T23:27:14.433Z,587.10
2018-12-31T23:29:44.756Z,422.87
2018-12-31T23:32:15.167Z,258.57
2018-12-31T23:34:45.539Z,221.93
2018-12-31T23:37:15.916Z,171.73
2018-12-31T23:39:46.269Z,101.73
2018-12-31T23:42:16.742Z,251.60
2018-12-31T23:44:52.853Z,137.27
2018-12-31T23:47:19.020Z,104.27
2018-12-31T23:49:49.378Z,100.73
2018-12-31T23:52:19.725Z,244.00
2018-12-31T23:54:50.090Z,129.80
2018-12-31T23:57:20.503Z,154.57
2018-12-31T23:59:50.917Z,133.90
